Time;durP1;ratioP1;P1;durP2;ratioP2;P2;SDS_P1;SDS_P2;PMS_P1;PMS_P2;Temp;Humidity;BMP_temperature;BMP_pressure;BME280_temperature;BME280_humidity;BME280_pressure;Samples;Min_cycle;Max_cycle;Signal;HPM_P1;HPM_P2
2021/05/23 00:00:06;;;;;;;3.78;3.67;;;;;;;8.64;82.12;100592.91;4406463;32;20060;-73
2021/05/23 00:02:32;;;;;;;3.60;3.50;;;;;;;8.60;81.94;100592.22;4413272;32;20068;-72
2021/05/23 00:04:58;;;;;;;4.10;3.90;;;;;;;8.54;82.17;100588.09;4413283;32;20217;-73
2021/05/23 00:07:25;;;;;;;3.40;3.30;;;;;;;8.51;81.89;100595.25;4410273;32;20665;-73
2021/05/23 00:09:53;;;;;;;3.28;3.17;;;;;;;8.39;81.34;100579.13;4417674;32;20080;-73
2021/05/23 00:12:18;;;;;;;3.60;3.50;;;;;;;8.19;81.60;100553.03;4396081;32;20084;-73
2021/05/23 00:14:44;;;;;;;3.75;3.55;;;;;;;8.41;81.91;100596.53;4420156;32;20659;-74
2021/05/23 00:17:09;;;;;;;3.50;3.40;;;;;;;8.36;82.59;100581.06;4400860;32;20136;-73
2021/05/23 00:19:35;;;;;;;3.40;3.30;;;;;;;8.19;82.71;100566.97;4412270;32;20067;-73
2021/05/23 00:22:00;;;;;;;3.60;3.50;;;;;;;8.30;82.44;100595.25;4408504;32;20084;-73
2021/05/23 00:24:26;;;;;;;3.50;3.40;;;;;;;8.25;82.85;100596.37;4418396;32;20679;-73
2021/05/23 00:26:52;;;;;;;3.40;3.30;;;;;;;8.24;82.49;100599.87;4398082;32;20068;-73
2021/05/23 00:29:18;;;;;;;3.40;3.30;;;;;;;8.24;83.05;100599.87;4415912;32;20612;-73
2021/05/23 00:31:44;;;;;;;3.65;3.50;;;;;;;8.26;82.78;100603.28;4408825;32;20072;-73
2021/05/23 00:34:09;;;;;;;3.67;3.58;;;;;;;8.14;83.09;100586.41;4414999;32;20080;-73
2021/05/23 00:36:37;;;;;;;3.37;3.28;;;;;;;8.23;83.65;100609.50;4414933;32;20068;-73
2021/05/23 00:39:04;;;;;;;3.30;3.20;;;;;;;8.07;83.68;100582.34;4414515;32;20854;-73
2021/05/23 00:41:30;;;;;;;3.50;3.40;;;;;;;8.18;83.21;100614.94;4402377;32;21078;-73
2021/05/23 00:44:13;;;;;;;3.40;3.30;;;;;;;8.04;83.35;100587.69;4416906;32;20080;-73
2021/05/23 00:46:38;;;;;;;3.78;3.67;;;;;;;8.18;84.09;100606.25;4400515;32;20112;-72
2021/05/23 00:49:07;;;;;;;3.42;3.33;;;;;;;8.24;83.89;100619.06;4400928;32;20076;-73
2021/05/23 00:51:33;;;;;;;3.40;3.30;;;;;;;7.35;84.18;100459.16;4397705;32;20088;-73
2021/05/23 00:53:58;;;;;;;3.40;3.30;;;;;;;8.37;84.08;100612.34;4412207;32;20068;-73
2021/05/23 00:56:29;;;;;;;3.37;3.28;;;;;;;8.39;83.30;100601.84;4395521;32;20072;-73
2021/05/23 00:58:54;;;;;;;3.40;3.30;;;;;;;8.50;83.70;100610.09;4413726;32;20086;-72
2021/05/23 01:01:54;;;;;;;3.40;3.30;;;;;;;8.51;83.21;100606.53;4414173;32;20932;-73
2021/05/23 01:04:23;;;;;;;3.50;3.40;;;;;;;8.38;83.38;100595.75;4437037;32;20091;-73
2021/05/23 01:06:49;;;;;;;3.50;3.40;;;;;;;8.47;82.32;100604.16;4402375;32;21019;-72
2021/05/23 01:09:17;;;;;;;3.70;3.60;;;;;;;8.48;81.66;100605.81;4402217;32;20080;-72
2021/05/23 01:11:42;;;;;;;3.60;3.50;;;;;;;8.58;82.68;100615.81;4407143;32;20553;-72
2021/05/23 01:14:45;;;;;;;3.40;3.30;;;;;;;8.59;82.78;100609.66;4425258;32;20137;-73
2021/05/23 01:17:21;;;;;;;3.40;3.30;;;;;;;8.62;82.61;100619.16;4438430;32;20609;-73
2021/05/23 01:19:56;;;;;;;3.50;3.40;;;;;;;8.63;81.70;100620.00;4414824;32;20076;-72
2021/05/23 01:22:52;;;;;;;3.47;3.37;;;;;;;8.60;81.04;100607.91;4415420;32;20087;-74
2021/05/23 01:25:20;;;;;;;3.37;3.28;;;;;;;8.65;81.38;100621.62;4411011;32;20081;-72
2021/05/23 01:27:51;;;;;;;3.25;3.15;;;;;;;8.71;81.66;100610.88;4406616;32;20084;-72
2021/05/23 01:30:25;;;;;;;3.50;3.40;;;;;;;8.73;80.82;100616.87;4397489;32;20972;-72
2021/05/23 01:33:03;;;;;;;3.65;3.55;;;;;;;8.78;81.18;100633.22;4401312;32;21038;-73
2021/05/23 01:35:33;;;;;;;3.40;3.30;;;;;;;8.83;80.04;100612.06;4421167;32;20672;-71
2021/05/23 01:38:00;;;;;;;3.33;3.22;;;;;;;8.75;80.49;100604.56;4402912;32;20076;-71
2021/05/23 01:40:34;;;;;;;3.40;3.30;;;;;;;8.85;80.41;100618.09;4411564;32;20073;-74
2021/05/23 01:43:00;;;;;;;3.40;3.30;;;;;;;8.89;80.23;100610.94;4406440;32;20064;-74
2021/05/23 01:45:29;;;;;;;3.45;3.35;;;;;;;8.83;80.55;100614.69;4417914;32;20097;-72
2021/05/23 01:48:09;;;;;;;3.40;3.30;;;;;;;8.92;79.78;100614.28;4392527;32;20072;-73
2021/05/23 01:50:38;;;;;;;3.47;3.37;;;;;;;8.91;80.91;100627.44;4417062;32;20073;-72
2021/05/23 01:53:04;;;;;;;3.50;3.40;;;;;;;8.97;80.45;100614.91;4414752;32;20091;-73
2021/05/23 01:55:31;;;;;;;3.55;3.45;;;;;;;8.97;80.22;100619.28;4397089;32;20087;-73
2021/05/23 01:57:56;;;;;;;3.37;3.28;;;;;;;9.00;79.69;100611.31;4415833;32;20061;-72
2021/05/23 02:00:54;;;;;;;3.33;3.22;;;;;;;9.02;80.58;100617.31;4416432;32;20068;-73
2021/05/23 02:03:21;;;;;;;3.40;3.30;;;;;;;9.04;80.17;100615.47;4408817;32;20082;-73
2021/05/23 02:05:51;;;;;;;3.40;3.30;;;;;;;9.03;80.18;100619.00;4429104;32;20076;-73
2021/05/23 02:08:22;;;;;;;3.50;3.40;;;;;;;9.07;80.06;100623.16;4409705;32;20577;-72
2021/05/23 02:10:48;;;;;;;3.78;3.60;;;;;;;9.03;80.25;100621.62;4407533;32;20083;-70
2021/05/23 02:13:14;;;;;;;3.33;3.22;;;;;;;9.06;80.65;100618.00;4414578;32;20075;-71
2021/05/23 02:15:40;;;;;;;3.53;3.42;;;;;;;9.06;79.72;100618.88;4413541;32;20068;-73
2021/05/23 02:18:06;;;;;;;3.40;3.30;;;;;;;9.06;80.14;100626.72;4433888;32;20121;-74
2021/05/23 02:20:32;;;;;;;3.50;3.40;;;;;;;9.05;80.08;100627.63;4409727;32;20079;-73
2021/05/23 02:23:02;;;;;;;3.60;3.50;;;;;;;8.92;80.33;100598.56;4413774;32;20064;-72
2021/05/23 02:25:28;;;;;;;3.55;3.45;;;;;;;8.99;81.53;100602.59;4415012;32;25510;-72
2021/05/23 02:27:56;;;;;;;3.40;3.30;;;;;;;9.09;81.61;100621.31;4417502;32;20932;-71
2021/05/23 02:30:30;;;;;;;3.30;3.20;;;;;;;9.10;81.52;100627.41;4416384;32;20064;-73
2021/05/23 02:32:55;;;;;;;3.50;3.40;;;;;;;8.72;81.61;100581.19;4423623;32;20095;-71
2021/05/23 02:35:40;;;;;;;3.50;3.40;;;;;;;9.02;82.99;100633.03;4422303;32;20614;-71
2021/05/23 02:38:07;;;;;;;3.40;3.30;;;;;;;8.96;83.16;100635.91;4438984;32;20072;-72
2021/05/23 02:40:32;;;;;;;3.42;3.33;;;;;;;8.88;83.72;100638.03;4427453;32;20080;-72
2021/05/23 02:42:59;;;;;;;3.42;3.33;;;;;;;8.86;84.44;100630.28;4431189;32;20079;-72
2021/05/23 02:45:37;;;;;;;3.70;3.50;;;;;;;8.50;84.76;100588.28;4423631;32;20327;-71
2021/05/23 02:48:04;;;;;;;3.60;3.50;;;;;;;8.71;84.54;100630.97;4422678;32;20068;-72
2021/05/23 02:50:31;;;;;;;3.22;3.12;;;;;;;8.74;85.32;100650.00;4436613;32;20096;-72
2021/05/23 02:52:56;;;;;;;3.50;3.40;;;;;;;8.49;85.83;100594.47;4446361;27;20055;-68
2021/05/23 02:55:22;;;;;;;3.70;3.60;;;;;;;8.75;85.93;100643.81;4429112;32;20162;-68
2021/05/23 02:57:47;;;;;;;3.50;3.40;;;;;;;8.74;85.69;100642.16;4429885;32;20083;-68
2021/05/23 03:00:14;;;;;;;3.58;3.40;;;;;;;8.76;86.01;100650.78;4433628;32;20221;-68
2021/05/23 03:02:40;;;;;;;3.58;3.45;;;;;;;8.73;86.73;100650.06;4449125;32;20986;-68
2021/05/23 03:05:10;;;;;;;3.30;3.20;;;;;;;8.74;87.32;100649.12;4448983;32;20063;-68
2021/05/23 03:07:40;;;;;;;3.58;3.47;;;;;;;8.73;86.32;100663.13;4457781;32;20075;-68
2021/05/23 03:10:07;;;;;;;3.60;3.50;;;;;;;8.73;87.29;100655.28;4434186;32;20090;-68
2021/05/23 03:12:32;;;;;;;3.62;3.53;;;;;;;8.77;87.05;100668.16;4444327;32;20506;-68
2021/05/23 03:14:58;;;;;;;3.58;3.47;;;;;;;8.79;86.54;100663.69;4450095;32;20575;-68
2021/05/23 03:17:23;;;;;;;3.80;3.70;;;;;;;8.75;87.66;100670.00;4448357;32;20083;-68
2021/05/23 03:19:48;;;;;;;3.50;3.40;;;;;;;8.70;86.92;100666.75;4447938;32;20120;-68
2021/05/23 03:22:14;;;;;;;3.60;3.50;;;;;;;8.71;87.39;100678.91;4446080;32;20070;-68
2021/05/23 03:24:39;;;;;;;3.87;3.67;;;;;;;8.11;86.94;100584.75;4430148;32;20055;-68
2021/05/23 03:27:05;;;;;;;3.50;3.40;;;;;;;8.81;86.73;100683.72;4434663;32;20080;-68
2021/05/23 03:29:30;;;;;;;3.40;3.30;;;;;;;8.81;87.77;100676.72;4445626;32;20064;-68
2021/05/23 03:31:55;;;;;;;3.30;3.20;;;;;;;8.84;87.50;100689.69;4450750;32;20076;-68
2021/05/23 03:34:21;;;;;;;4.80;4.60;;;;;;;8.86;87.08;100692.19;4432414;32;20084;-68
2021/05/23 03:36:47;;;;;;;3.70;3.60;;;;;;;8.86;86.78;100689.59;4431999;32;20076;-67
2021/05/23 03:39:12;;;;;;;4.28;4.07;;;;;;;8.69;86.67;100670.25;4438944;32;20565;-67
2021/05/23 03:41:37;;;;;;;3.47;3.37;;;;;;;8.86;87.71;100693.06;4436346;32;20061;-67
2021/05/23 03:44:03;;;;;;;3.62;3.47;;;;;;;8.84;87.29;100699.28;4457622;32;20124;-67
2021/05/23 03:46:28;;;;;;;3.60;3.50;;;;;;;8.89;87.28;100705.16;4432474;32;20063;-68
2021/05/23 03:48:54;;;;;;;3.50;3.40;;;;;;;8.91;87.25;100698.94;4444389;31;20067;-67
2021/05/23 03:51:19;;;;;;;3.40;3.30;;;;;;;8.88;86.41;100704.31;4442774;32;20082;-67
2021/05/23 03:53:44;;;;;;;3.58;3.47;;;;;;;8.86;86.45;100706.16;4438199;31;20484;-67
2021/05/23 03:56:10;;;;;;;3.60;3.50;;;;;;;8.86;87.57;100707.91;4445928;32;20076;-66
2021/05/23 03:58:35;;;;;;;3.60;3.50;;;;;;;8.88;86.83;100709.56;4450724;32;20082;-67
2021/05/23 04:01:01;;;;;;;3.50;3.40;;;;;;;8.89;86.77;100719.09;4448832;32;20071;-67
2021/05/23 04:03:28;;;;;;;3.60;3.50;;;;;;;8.90;87.59;100719.94;4449241;32;20060;-67
2021/05/23 04:05:53;;;;;;;3.40;3.30;;;;;;;8.01;87.61;100577.38;4434461;32;20118;-67
2021/05/23 04:08:19;;;;;;;3.55;3.40;;;;;;;8.92;87.80;100729.44;4449301;32;20478;-67
2021/05/23 04:10:53;;;;;;;3.62;3.53;;;;;;;8.97;87.27;100726.59;4447889;31;20139;-67
2021/05/23 04:13:21;;;;;;;3.40;3.30;;;;;;;8.98;86.45;100739.63;4450341;32;20155;-67
2021/05/23 04:15:46;;;;;;;3.42;3.33;;;;;;;8.91;87.56;100737.34;4451586;31;20060;-67
2021/05/23 04:18:12;;;;;;;3.70;3.60;;;;;;;8.84;87.13;100726.31;4447390;32;20064;-67
2021/05/23 04:20:37;;;;;;;4.00;3.80;;;;;;;9.05;87.37;100749.81;4448203;31;20064;-67
2021/05/23 04:23:02;;;;;;;3.50;3.40;;;;;;;9.10;87.09;100747.84;4446488;32;20623;-67
2021/05/23 04:25:28;;;;;;;4.00;3.80;;;;;;;9.09;86.99;100747.00;4449847;31;20071;-67
2021/05/23 04:27:53;;;;;;;3.53;3.42;;;;;;;9.18;87.00;100759.69;4445796;32;20090;-67
2021/05/23 04:30:21;;;;;;;3.65;3.55;;;;;;;9.26;86.62;100753.22;4448129;32;20616;-67
2021/05/23 04:32:46;;;;;;;5.22;4.85;;;;;;;8.83;86.02;100694.97;4439734;32;20067;-66
2021/05/23 04:35:14;;;;;;;4.95;4.75;;;;;;;9.19;85.92;100748.25;4445840;32;20574;-67
2021/05/23 04:37:39;;;;;;;4.05;3.85;;;;;;;9.26;85.57;100767.19;4450703;31;20079;-67
2021/05/23 04:40:05;;;;;;;3.50;3.40;;;;;;;9.22;85.50;100776.09;4451660;32;20086;-67
2021/05/23 04:42:31;;;;;;;3.50;3.40;;;;;;;9.21;85.67;100773.53;4448428;32;20067;-67
2021/05/23 04:44:56;;;;;;;3.55;3.42;;;;;;;9.23;86.01;100782.19;4447612;32;20087;-68
2021/05/23 04:47:23;;;;;;;3.80;3.60;;;;;;;9.08;85.89;100765.38;4447649;32;20099;-67
2021/05/23 04:49:49;;;;;;;4.20;4.00;;;;;;;9.19;86.86;100784.94;4438584;31;20209;-67
2021/05/23 04:52:14;;;;;;;3.62;3.53;;;;;;;9.18;86.08;100788.47;4435700;32;20926;-67
2021/05/23 04:54:39;;;;;;;3.60;3.50;;;;;;;9.17;85.54;100794.62;4444350;31;20080;-67
2021/05/23 04:57:05;;;;;;;4.30;4.10;;;;;;;9.14;85.51;100792.16;4448781;31;20075;-67
2021/05/23 04:59:31;;;;;;;3.60;3.50;;;;;;;9.14;84.91;100792.16;4443933;31;20321;-67
2021/05/23 05:01:56;;;;;;;3.50;3.40;;;;;;;9.15;85.13;100804.31;4449393;32;20100;-67
2021/05/23 05:04:22;;;;;;;3.50;3.40;;;;;;;9.15;85.06;100796.44;4452691;32;20083;-67
2021/05/23 05:06:47;;;;;;;3.40;3.30;;;;;;;9.12;84.00;100809.69;4434503;32;20090;-67
2021/05/23 05:09:12;;;;;;;3.50;3.40;;;;;;;9.04;82.25;100810.94;4430820;32;20095;-67
2021/05/23 05:11:38;;;;;;;3.70;3.50;;;;;;;9.02;81.00;100826.72;4416773;32;20074;-68
2021/05/23 05:14:03;;;;;;;3.50;3.40;;;;;;;9.04;82.26;100819.66;4437828;32;20065;-67
2021/05/23 05:16:29;;;;;;;3.50;3.40;;;;;;;8.95;81.90;100817.44;4432820;32;20479;-67
2021/05/23 05:18:54;;;;;;;3.55;3.45;;;;;;;8.98;80.08;100822.56;4443652;31;20066;-68
2021/05/23 05:21:19;;;;;;;3.50;3.40;;;;;;;8.89;80.95;100815.94;4453250;31;20671;-68
2021/05/23 05:23:45;;;;;;;3.60;3.50;;;;;;;8.97;80.35;100826.91;4431518;32;20094;-67
2021/05/23 05:26:10;;;;;;;3.40;3.30;;;;;;;8.61;80.23;100779.63;4446677;32;20082;-68
2021/05/23 05:28:35;;;;;;;3.47;3.37;;;;;;;8.87;80.79;100832.63;4447475;31;20087;-67
2021/05/23 05:31:01;;;;;;;3.50;3.40;;;;;;;8.87;80.67;100830.00;4445704;32;20069;-68
2021/05/23 05:33:26;;;;;;;3.97;3.80;;;;;;;8.78;81.06;100821.62;4441409;31;20478;-68
2021/05/23 05:35:51;;;;;;;3.40;3.30;;;;;;;8.90;80.69;100835.97;4445518;32;20060;-67
2021/05/23 05:38:17;;;;;;;3.40;3.30;;;;;;;8.89;80.15;100836.87;4445085;32;20071;-68
2021/05/23 05:40:42;;;;;;;3.58;3.47;;;;;;;9.02;81.09;100847.69;4429267;32;20086;-68
2021/05/23 05:43:07;;;;;;;3.47;3.37;;;;;;;8.98;80.76;100846.09;4448569;32;20056;-67
2021/05/23 05:45:33;;;;;;;3.35;3.25;;;;;;;8.90;80.84;100851.66;4447261;32;20087;-68
2021/05/23 05:47:58;;;;;;;3.40;3.30;;;;;;;8.85;81.63;100851.00;4441665;32;20072;-67
2021/05/23 05:50:24;;;;;;;3.47;3.37;;;;;;;8.82;81.42;100845.91;4430609;32;20588;-67
2021/05/23 05:52:49;;;;;;;3.40;3.30;;;;;;;8.77;81.93;100850.47;4436365;32;20083;-68
2021/05/23 05:55:14;;;;;;;3.30;3.20;;;;;;;8.89;81.54;100849.09;4438739;32;20056;-67
2021/05/23 05:57:40;;;;;;;3.47;3.37;;;;;;;8.98;82.19;100843.50;4445695;32;20071;-68
2021/05/23 06:00:06;;;;;;;3.30;3.20;;;;;;;9.08;82.59;100847.41;4442128;32;20072;-68
2021/05/23 06:02:31;;;;;;;3.35;3.25;;;;;;;9.21;82.34;100855.56;4440707;31;20088;-67
2021/05/23 06:04:57;;;;;;;3.45;3.35;;;;;;;9.24;81.51;100849.34;4431410;32;20152;-67
2021/05/23 06:07:22;;;;;;;3.33;3.22;;;;;;;9.23;80.12;100858.97;4431462;32;20071;-67
2021/05/23 06:09:47;;;;;;;3.53;3.42;;;;;;;9.34;81.07;100861.97;4433130;31;20085;-68
2021/05/23 06:12:13;;;;;;;3.50;3.40;;;;;;;9.43;81.41;100867.72;4458065;32;20147;-67
2021/05/23 06:14:38;;;;;;;3.60;3.50;;;;;;;9.39;80.50;100854.75;4436321;32;20829;-67
2021/05/23 06:17:04;;;;;;;3.67;3.58;;;;;;;8.71;80.21;100739.06;4443014;32;20082;-67
2021/05/23 06:19:29;;;;;;;3.50;3.40;;;;;;;9.55;79.58;100870.63;4449116;32;20117;-67
2021/05/23 06:21:55;;;;;;;3.50;3.40;;;;;;;9.59;79.40;100881.81;4434831;32;20103;-67
2021/05/23 06:24:20;;;;;;;3.30;3.20;;;;;;;9.64;78.77;100884.22;4422970;32;20076;-67
2021/05/23 06:26:45;;;;;;;3.70;3.60;;;;;;;9.76;78.78;100874.06;4425033;32;20128;-67
2021/05/23 06:29:11;;;;;;;3.42;3.33;;;;;;;9.79;77.87;100873.91;4437650;32;20171;-67
2021/05/23 06:31:36;;;;;;;3.60;3.50;;;;;;;9.89;77.50;100890.06;4459053;32;20615;-67
2021/05/23 06:34:01;;;;;;;3.72;3.58;;;;;;;9.90;77.39;100891.78;4445450;32;20136;-67
2021/05/23 06:36:27;;;;;;;3.55;3.45;;;;;;;10.06;76.71;100897.13;4434829;32;20083;-67
2021/05/23 06:38:52;;;;;;;3.70;3.60;;;;;;;10.18;76.63;100901.81;4421319;32;20799;-67
2021/05/23 06:41:18;;;;;;;4.37;4.18;;;;;;;10.23;75.11;100901.59;4428759;32;20089;-67
2021/05/23 06:43:43;;;;;;;3.50;3.40;;;;;;;10.40;74.16;100913.91;4423321;32;20074;-67
2021/05/23 06:46:08;;;;;;;3.65;3.55;;;;;;;10.63;72.35;100912.81;4418722;32;20669;-67
2021/05/23 06:48:34;;;;;;;3.60;3.50;;;;;;;10.85;71.47;100914.38;4430139;32;20102;-66
2021/05/23 06:51:00;;;;;;;3.80;3.70;;;;;;;10.80;70.50;100924.25;4434797;32;20775;-67
2021/05/23 06:53:25;;;;;;;3.72;3.62;;;;;;;11.04;70.61;100916.94;4438857;32;20071;-67
2021/05/23 06:55:50;;;;;;;3.83;3.72;;;;;;;11.14;71.17;100923.41;4436809;32;20076;-67
2021/05/23 06:58:16;;;;;;;3.78;3.67;;;;;;;11.17;69.30;100925.91;4433517;32;20076;-67
2021/05/23 07:00:41;;;;;;;4.07;3.87;;;;;;;11.52;69.70;100921.41;4430292;32;20072;-67
2021/05/23 07:03:06;;;;;;;3.70;3.60;;;;;;;11.72;68.96;100896.69;4425686;32;20064;-67
2021/05/23 07:05:32;;;;;;;3.60;3.50;;;;;;;11.72;66.36;100930.03;4433893;32;20090;-67
2021/05/23 07:07:57;;;;;;;3.80;3.70;;;;;;;11.73;66.25;100926.50;4423944;32;20191;-67
2021/05/23 07:10:23;;;;;;;3.72;3.62;;;;;;;11.91;66.53;100933.41;4443245;32;20069;-67
2021/05/23 07:12:48;;;;;;;4.10;3.90;;;;;;;11.55;62.70;100929.16;4421094;32;20578;-66
2021/05/23 07:15:13;;;;;;;3.80;3.70;;;;;;;11.73;64.55;100932.59;4474666;31;20075;-66
2021/05/23 07:17:39;;;;;;;4.72;4.53;;;;;;;11.72;64.62;100930.03;4444161;32;20590;-67
2021/05/23 07:20:05;;;;;;;4.10;3.90;;;;;;;11.40;63.26;100955.37;4456500;31;20588;-67
2021/05/23 07:22:30;;;;;;;3.70;3.60;;;;;;;11.44;64.78;100954.28;4449046;32;20185;-67
2021/05/23 07:24:56;;;;;;;4.10;3.90;;;;;;;11.51;63.06;100956.53;4445630;32;20140;-67
2021/05/23 07:27:21;;;;;;;3.92;3.80;;;;;;;11.87;64.27;100950.25;4445425;32;20079;-67
2021/05/23 07:29:46;;;;;;;4.00;3.80;;;;;;;11.97;62.27;100943.59;4431813;32;20882;-67
2021/05/23 07:32:12;;;;;;;4.20;4.00;;;;;;;12.12;61.78;100949.81;4432813;32;20075;-67
2021/05/23 07:34:37;;;;;;;3.97;3.80;;;;;;;12.38;61.59;100937.84;4428715;32;20075;-67
2021/05/23 07:37:02;;;;;;;4.10;3.90;;;;;;;12.43;57.93;100947.25;4428273;32;20068;-67
2021/05/23 07:39:28;;;;;;;3.78;3.67;;;;;;;12.35;55.82;100960.88;4415739;32;20072;-67
2021/05/23 07:41:53;;;;;;;4.10;3.92;;;;;;;12.10;57.66;100956.09;4431793;32;20083;-67
2021/05/23 07:44:19;;;;;;;4.00;3.80;;;;;;;11.92;58.44;100924.59;4435682;32;20077;-68
2021/05/23 07:46:44;;;;;;;3.87;3.75;;;;;;;11.97;59.07;100945.41;4442135;32;20567;-68
2021/05/23 07:49:10;;;;;;;3.92;3.78;;;;;;;12.30;58.03;100969.00;4428348;32;20108;-68
2021/05/23 07:51:35;;;;;;;4.05;3.92;;;;;;;12.23;57.15;100972.03;4410299;32;20088;-69
2021/05/23 07:54:01;;;;;;;4.60;4.40;;;;;;;12.39;56.10;100975.56;4426383;32;20132;-69
2021/05/23 07:56:26;;;;;;;3.87;3.78;;;;;;;12.55;57.87;100980.81;4448754;32;20977;-66
2021/05/23 07:58:51;;;;;;;4.07;3.87;;;;;;;12.73;57.06;100981.56;4429772;32;20088;-67
2021/05/23 08:01:17;;;;;;;3.92;3.80;;;;;;;13.11;56.16;100981.12;4441452;32;20200;-66
2021/05/23 08:03:43;;;;;;;4.70;4.50;;;;;;;12.96;54.94;100988.12;4428153;32;20850;-68
2021/05/23 08:06:09;;;;;;;4.10;3.90;;;;;;;12.77;54.45;100988.34;4441786;32;20113;-67
2021/05/23 08:08:35;;;;;;;4.00;3.80;;;;;;;12.75;54.24;100991.06;4430048;32;20175;-67
2021/05/23 08:11:01;;;;;;;4.18;3.97;;;;;;;12.94;53.24;100998.75;4442945;32;20577;-67
2021/05/23 08:13:26;;;;;;;3.80;3.70;;;;;;;11.91;53.31;100854.53;4434538;32;20079;-66
2021/05/23 08:15:54;;;;;;;3.78;3.67;;;;;;;13.16;54.92;100998.38;4417755;32;20068;-66
2021/05/23 08:18:22;;;;;;;4.10;3.90;;;;;;;13.09;53.00;100981.25;4422972;32;20611;-67
2021/05/23 08:20:50;;;;;;;3.90;3.80;;;;;;;13.20;51.62;101006.13;4401784;32;20072;-66
2021/05/23 08:23:15;;;;;;;4.10;3.90;;;;;;;13.06;52.53;100981.41;4419863;32;20072;-67
2021/05/23 08:25:40;;;;;;;4.20;4.00;;;;;;;13.56;51.82;100995.22;4429432;32;20082;-67
2021/05/23 08:28:06;;;;;;;4.20;4.00;;;;;;;13.50;51.03;100999.06;4429593;32;20079;-67
2021/05/23 08:30:31;;;;;;;4.30;4.10;;;;;;;13.43;51.84;100989.84;4414936;32;20488;-67
2021/05/23 08:32:57;;;;;;;4.28;4.07;;;;;;;13.74;51.78;101007.28;4441207;32;20063;-67
2021/05/23 08:35:22;;;;;;;4.20;4.00;;;;;;;13.53;51.16;101005.94;4436575;32;20155;-68
2021/05/23 08:37:47;;;;;;;4.25;4.05;;;;;;;14.05;50.96;101005.44;4442207;32;20076;-68
2021/05/23 08:40:13;;;;;;;4.07;3.87;;;;;;;14.13;49.25;101004.91;4441076;32;20120;-68
2021/05/23 08:42:39;;;;;;;4.32;4.12;;;;;;;14.16;49.42;100992.38;4441999;32;20068;-68
2021/05/23 08:45:05;;;;;;;4.30;4.10;;;;;;;14.46;49.75;101016.97;4429852;32;20076;-68
2021/05/23 08:47:30;;;;;;;4.25;4.05;;;;;;;13.88;49.59;101024.91;4445187;32;20096;-69
2021/05/23 08:49:55;;;;;;;4.12;3.92;;;;;;;13.20;49.56;101016.66;4444357;32;20695;-69
2021/05/23 08:52:21;;;;;;;4.10;3.90;;;;;;;13.08;51.45;101015.56;4441480;32;20485;-69
2021/05/23 08:54:48;;;;;;;4.10;3.90;;;;;;;12.96;51.31;101027.66;4433679;32;20068;-70
2021/05/23 08:57:16;;;;;;;4.20;4.00;;;;;;;12.58;52.58;101017.50;4438222;32;21030;-68
2021/05/23 08:59:42;;;;;;;4.10;3.90;;;;;;;12.70;53.61;101029.97;4429820;32;20831;-68
2021/05/23 09:02:07;;;;;;;4.20;4.00;;;;;;;12.95;53.57;101044.41;4428079;32;20090;-69
2021/05/23 09:04:33;;;;;;;4.00;3.80;;;;;;;13.40;52.95;101037.44;4454603;32;20080;-70
2021/05/23 09:07:05;;;;;;;4.05;3.85;;;;;;;14.08;50.85;101031.59;4450052;32;20083;-69
2021/05/23 09:09:40;;;;;;;4.20;4.00;;;;;;;14.18;50.96;101033.69;4442089;32;20111;-71
2021/05/23 09:12:07;;;;;;;4.72;4.53;;;;;;;14.03;50.63;101028.41;4427901;31;20349;-71
2021/05/23 09:14:44;;;;;;;4.32;4.12;;;;;;;14.11;52.18;101042.00;4443310;31;20099;-70
2021/05/23 09:17:23;;;;;;;4.90;4.70;;;;;;;14.16;49.70;101037.25;4440402;31;20075;-70
2021/05/23 09:19:49;;;;;;;4.10;3.90;;;;;;;13.83;50.43;101036.69;4433995;32;20086;-65
2021/05/23 09:22:16;;;;;;;4.43;4.22;;;;;;;14.04;49.30;101045.09;4456605;31;20068;-65
2021/05/23 09:24:55;;;;;;;4.10;3.90;;;;;;;14.27;49.48;101026.06;4432888;32;20122;-66
2021/05/23 09:27:21;;;;;;;4.20;4.00;;;;;;;14.71;49.06;101046.19;4450074;32;20106;-66
2021/05/23 09:29:47;;;;;;;4.50;4.30;;;;;;;15.13;45.64;101047.00;4439573;32;20078;-67
2021/05/23 09:32:18;;;;;;;4.10;3.90;;;;;;;15.10;44.23;101041.91;4451468;31;20071;-68
2021/05/23 09:34:47;;;;;;;4.28;4.07;;;;;;;15.24;45.49;101053.38;4432220;32;20174;-66
2021/05/23 09:37:13;;;;;;;4.40;4.20;;;;;;;15.04;43.59;101049.41;4450581;32;20120;-66
2021/05/23 09:39:39;;;;;;;4.40;4.20;;;;;;;15.13;45.08;101049.66;4438306;32;20113;-66
2021/05/23 09:42:05;;;;;;;4.40;4.20;;;;;;;14.88;46.94;101060.13;4436209;31;20285;-67
2021/05/23 09:44:31;;;;;;;4.50;4.30;;;;;;;15.10;45.16;101049.84;4448733;32;20082;-67
2021/05/23 09:47:02;;;;;;;4.30;4.10;;;;;;;15.21;44.10;101064.97;4452371;31;20565;-66
2021/05/23 09:49:28;;;;;;;4.32;4.12;;;;;;;15.21;43.08;101078.19;4457754;31;20931;-67
2021/05/23 09:51:57;;;;;;;5.43;5.15;;;;;;;15.23;43.99;101072.81;4459635;32;20757;-67
2021/05/23 09:54:24;;;;;;;4.47;4.28;;;;;;;15.02;44.25;101072.44;4448299;32;20107;-67
2021/05/23 09:56:49;;;;;;;4.40;4.20;;;;;;;15.04;43.10;101079.31;4444815;32;20550;-66
2021/05/23 09:59:33;;;;;;;4.50;4.30;;;;;;;15.82;43.26;101081.22;4438307;32;20079;-66
2021/05/23 10:02:05;;;;;;;4.30;4.10;;;;;;;15.37;42.05;101030.44;4439652;32;20072;-67
2021/05/23 10:04:31;;;;;;;4.30;4.10;;;;;;;15.52;42.76;101073.53;4433212;32;20065;-67
2021/05/23 10:07:01;;;;;;;4.50;4.30;;;;;;;15.05;44.07;101078.34;4456732;32;20090;-68
2021/05/23 10:09:27;;;;;;;4.32;4.12;;;;;;;15.11;45.42;101077.97;4441284;32;20091;-67
2021/05/23 10:11:52;;;;;;;4.53;4.32;;;;;;;15.08;44.35;101085.25;4453305;32;20090;-67
2021/05/23 10:14:18;;;;;;;4.97;4.78;;;;;;;15.44;44.99;101084.63;4452816;32;20064;-67
2021/05/23 10:16:44;;;;;;;4.35;4.15;;;;;;;15.62;45.26;101090.47;4442807;32;20165;-67
2021/05/23 10:19:09;;;;;;;4.50;4.30;;;;;;;15.82;44.66;101099.75;4456878;32;20605;-67
2021/05/23 10:21:35;;;;;;;4.57;4.37;;;;;;;15.97;43.75;101094.37;4439497;32;20068;-65
2021/05/23 10:24:02;;;;;;;4.45;4.25;;;;;;;15.76;44.34;101100.19;4441801;32;20597;-65
2021/05/23 10:26:28;;;;;;;4.35;4.15;;;;;;;15.83;44.95;101109.38;4454657;32;20099;-65
2021/05/23 10:28:53;;;;;;;4.50;4.30;;;;;;;15.36;43.64;101090.41;4458415;32;20177;-65
2021/05/23 10:31:35;;;;;;;4.45;4.25;;;;;;;15.49;43.37;101101.03;4439247;32;20084;-65
2021/05/23 10:34:00;;;;;;;4.20;4.00;;;;;;;16.27;43.22;101092.22;4454997;32;20072;-65
2021/05/23 10:36:37;;;;;;;4.57;4.37;;;;;;;16.46;43.23;101107.69;4467100;32;20566;-66
2021/05/23 10:39:05;;;;;;;5.00;4.70;;;;;;;15.95;42.40;101113.00;4454551;32;20534;-66
2021/05/23 10:41:30;;;;;;;4.50;4.30;;;;;;;15.55;43.30;101084.78;4440530;32;20060;-68
2021/05/23 10:43:57;;;;;;;4.40;4.20;;;;;;;15.56;43.74;101102.31;4455886;32;20083;-65
2021/05/23 10:46:22;;;;;;;4.40;4.20;;;;;;;14.80;44.10;101108.16;4444449;32;20067;-67
2021/05/23 10:48:58;;;;;;;4.40;4.20;;;;;;;14.42;45.54;101106.09;4444794;32;20118;-67
2021/05/23 10:51:24;;;;;;;4.40;4.20;;;;;;;14.87;45.49;101104.16;4453707;32;20087;-65
2021/05/23 10:53:49;;;;;;;4.40;4.20;;;;;;;15.35;46.31;101088.75;4457059;32;20486;-67
2021/05/23 10:56:29;;;;;;;4.45;4.25;;;;;;;15.60;43.94;101095.03;4430292;32;20104;-68
2021/05/23 10:59:01;;;;;;;4.32;4.12;;;;;;;15.07;41.77;100973.34;4434774;32;20067;-66
2021/05/23 11:01:43;;;;;;;4.25;4.05;;;;;;;15.46;43.17;101090.66;4443907;32;20200;-66
2021/05/23 11:04:13;;;;;;;4.37;4.18;;;;;;;15.27;41.43;101077.78;4431120;32;20091;-65
2021/05/23 11:06:39;;;;;;;4.32;4.12;;;;;;;15.45;41.30;101093.41;4442900;32;20182;-66
2021/05/23 11:09:14;;;;;;;4.30;4.10;;;;;;;15.24;41.72;101075.38;4433550;32;20202;-66
2021/05/23 11:11:40;;;;;;;4.87;4.68;;;;;;;15.57;41.38;101097.87;4431787;32;20067;-66
2021/05/23 11:14:19;;;;;;;4.40;4.20;;;;;;;15.68;42.76;101105.94;4445562;32;20068;-65
2021/05/23 11:16:45;;;;;;;4.97;4.78;;;;;;;15.86;41.38;101097.75;4456918;32;20179;-66
2021/05/23 11:19:12;;;;;;;4.70;4.50;;;;;;;15.81;40.05;101121.87;4434284;32;20253;-66
2021/05/23 11:21:41;;;;;;;4.50;4.30;;;;;;;15.77;39.62;101104.50;4433677;32;20106;-67
2021/05/23 11:24:07;;;;;;;4.40;4.20;;;;;;;15.57;40.36;101103.16;4441676;32;20525;-67
2021/05/23 11:26:33;;;;;;;4.55;4.35;;;;;;;15.45;38.79;101096.03;4433141;32;20068;-66
2021/05/23 11:28:59;;;;;;;4.50;4.30;;;;;;;15.24;40.93;101098.31;4443361;32;20075;-66